createdAt,value
2023-05-18T00:02:26.821Z,15.83
2023-05-18T00:04:55.027Z,15.72
2023-05-18T00:07:23.072Z,15.77
2023-05-18T00:09:51.161Z,16.03
2023-05-18T00:12:19.149Z,15.90
2023-05-18T00:14:47.027Z,15.94
2023-05-18T00:17:15.059Z,15.99
2023-05-18T00:19:43.135Z,16.03
2023-05-18T00:22:11.358Z,16.02
2023-05-18T00:24:39.289Z,15.87
2023-05-18T00:27:07.099Z,15.84
2023-05-18T00:29:35.087Z,15.82
2023-05-18T00:32:03.101Z,15.77
2023-05-18T00:34:31.159Z,15.68
2023-05-18T00:36:59.002Z,15.74
2023-05-18T00:39:26.839Z,15.83
2023-05-18T00:41:54.663Z,15.74
2023-05-18T00:44:22.514Z,15.67
2023-05-18T00:46:50.582Z,15.69
2023-05-18T00:49:19.178Z,15.67
2023-05-18T00:51:47.269Z,15.83
2023-05-18T00:54:15.722Z,15.83
2023-05-18T00:56:46.905Z,16.01
2023-05-18T00:59:16.396Z,15.78
2023-05-18T01:01:44.891Z,15.68
2023-05-18T01:04:16.099Z,15.55
2023-05-18T01:06:44.072Z,15.64
2023-05-18T01:09:12.610Z,15.62
2023-05-18T01:12:03.195Z,15.52
2023-05-18T01:14:53.158Z,15.55
2023-05-18T01:18:00.909Z,15.51
2023-05-18T01:20:38.149Z,15.34
2023-05-18T01:23:29.880Z,15.45
2023-05-18T01:25:58.029Z,15.40
2023-05-18T01:28:32.939Z,15.27
2023-05-18T01:31:02.034Z,15.25
2023-05-18T01:33:29.946Z,15.23
2023-05-18T01:35:57.875Z,15.23
2023-05-18T01:38:28.433Z,15.26
2023-05-18T01:41:28.699Z,15.27
2023-05-18T01:44:19.311Z,15.34
2023-05-18T01:47:09.338Z,15.40
2023-05-18T01:49:40.766Z,15.32
2023-05-18T01:52:18.998Z,15.25
2023-05-18T01:54:57.858Z,15.26
2023-05-18T01:57:29.951Z,15.16
2023-05-18T02:00:03.097Z,15.16
2023-05-18T02:02:45.446Z,15.25
2023-05-18T02:05:16.001Z,15.30
2023-05-18T02:07:44.267Z,15.23
2023-05-18T02:10:12.724Z,15.39
2023-05-18T02:12:40.768Z,15.38
2023-05-18T02:15:10.794Z,15.33
2023-05-18T02:17:39.196Z,15.16
2023-05-18T02:20:11.379Z,15.23
2023-05-18T02:22:39.314Z,15.10
2023-05-18T02:25:07.609Z,15.12
2023-05-18T02:27:36.816Z,15.14
2023-05-18T02:30:05.939Z,15.09
2023-05-18T02:32:38.910Z,15.08
2023-05-18T02:35:08.529Z,15.14
2023-05-18T02:37:40.182Z,15.20
2023-05-18T02:40:13.195Z,15.44
2023-05-18T02:42:42.620Z,15.37
2023-05-18T02:45:11.515Z,15.25
2023-05-18T02:47:41.294Z,15.26
2023-05-18T02:50:09.449Z,15.21
2023-05-18T02:52:37.470Z,15.27
2023-05-18T02:55:06.501Z,15.28
2023-05-18T02:57:57.325Z,15.40
2023-05-18T03:00:41.552Z,15.43
2023-05-18T03:03:11.182Z,15.46
2023-05-18T03:05:39.296Z,15.43
2023-05-18T03:08:10.429Z,15.50
2023-05-18T03:10:38.455Z,15.53
2023-05-18T03:13:06.424Z,15.44
2023-05-18T03:15:34.272Z,15.44
2023-05-18T03:18:02.333Z,15.41
2023-05-18T03:20:31.885Z,15.58
2023-05-18T03:22:59.855Z,15.65
2023-05-18T03:25:27.979Z,15.55
2023-05-18T03:27:57.075Z,15.31
2023-05-18T03:30:25.840Z,15.29
2023-05-18T03:32:53.784Z,15.31
2023-05-18T03:35:21.900Z,15.29
2023-05-18T03:37:50.047Z,15.31
2023-05-18T03:40:19.487Z,15.41
2023-05-18T03:42:48.070Z,15.39
2023-05-18T03:45:16.175Z,15.44
2023-05-18T03:47:44.561Z,15.40
2023-05-18T03:50:12.514Z,15.21
2023-05-18T03:52:41.726Z,15.22
2023-05-18T03:55:09.946Z,15.04
2023-05-18T03:57:38.055Z,15.12
2023-05-18T04:00:13.287Z,15.05
2023-05-18T04:02:52.299Z,15.02
2023-05-18T04:05:24.587Z,14.88
2023-05-18T04:07:52.487Z,15.01
2023-05-18T04:10:21.531Z,14.93
2023-05-18T04:12:50.024Z,15.15
2023-05-18T04:15:18.006Z,15.04
2023-05-18T04:17:46.337Z,15.23
2023-05-18T04:20:14.958Z,15.28
2023-05-18T04:22:48.656Z,15.30
2023-05-18T04:25:19.002Z,15.23
2023-05-18T04:27:51.611Z,15.40
2023-05-18T04:30:22.717Z,15.41
2023-05-18T04:32:51.851Z,15.88
2023-05-18T04:35:20.269Z,16.11
2023-05-18T04:37:48.166Z,16.36
2023-05-18T04:40:18.624Z,16.57
2023-05-18T04:42:48.923Z,16.60
2023-05-18T04:45:28.147Z,16.59
2023-05-18T04:47:58.885Z,16.62
2023-05-18T04:50:28.192Z,16.71
2023-05-18T04:52:58.369Z,16.77
2023-05-18T04:55:28.716Z,16.86
2023-05-18T04:58:01.480Z,16.68
2023-05-18T05:00:30.429Z,16.72
2023-05-18T05:02:59.591Z,16.78
2023-05-18T05:05:27.910Z,16.73
2023-05-18T05:07:56.264Z,16.81
2023-05-18T05:10:24.962Z,16.81
2023-05-18T05:12:53.291Z,16.81
2023-05-18T05:15:21.326Z,16.86
2023-05-18T05:17:51.447Z,16.85
2023-05-18T05:20:20.107Z,16.90
2023-05-18T05:22:48.362Z,17.01
2023-05-18T05:25:21.983Z,16.84
2023-05-18T05:27:49.840Z,16.91
2023-05-18T05:30:20.516Z,17.03
2023-05-18T05:32:48.571Z,17.01
2023-05-18T05:35:16.595Z,16.86
2023-05-18T05:37:46.103Z,16.99
2023-05-18T05:40:14.239Z,16.75
2023-05-18T05:42:45.118Z,16.89
2023-05-18T05:45:13.968Z,16.96
2023-05-18T05:47:55.558Z,16.90
2023-05-18T05:50:24.860Z,16.95
2023-05-18T05:52:54.825Z,17.08
2023-05-18T05:55:24.721Z,17.15
2023-05-18T05:57:54.139Z,17.16
2023-05-18T06:00:23.961Z,17.18
2023-05-18T06:02:56.152Z,17.25
2023-05-18T06:05:45.118Z,17.26
2023-05-18T06:08:16.012Z,17.17
2023-05-18T06:10:44.382Z,17.26
2023-05-18T06:13:13.267Z,17.44
2023-05-18T06:15:46.943Z,17.56
2023-05-18T06:18:15.877Z,17.59
2023-05-18T06:20:45.664Z,17.60
2023-05-18T06:23:16.686Z,17.58
2023-05-18T06:26:14.866Z,17.51
2023-05-18T06:29:11.907Z,17.44
2023-05-18T06:32:00.683Z,17.48
2023-05-18T06:34:38.470Z,17.67
2023-05-18T06:37:06.961Z,17.79
2023-05-18T06:39:35.183Z,17.85
2023-05-18T06:42:03.259Z,17.85
2023-05-18T06:44:36.194Z,18.04
2023-05-18T06:47:18.416Z,18.00
2023-05-18T06:49:46.747Z,17.93
2023-05-18T06:52:16.138Z,17.92
2023-05-18T06:54:45.762Z,17.93
2023-05-18T06:57:13.939Z,17.99
2023-05-18T06:59:42.030Z,17.94
2023-05-18T07:02:10.063Z,18.15
2023-05-18T07:04:38.259Z,18.31
2023-05-18T07:07:08.024Z,17.95
2023-05-18T07:09:37.431Z,18.01
2023-05-18T07:12:05.827Z,18.02
2023-05-18T07:14:33.892Z,18.24
2023-05-18T07:17:01.992Z,18.36
2023-05-18T07:19:30.113Z,18.36
2023-05-18T07:21:59.632Z,18.40
2023-05-18T07:24:28.036Z,18.31
2023-05-18T07:26:56.805Z,18.30
2023-05-18T07:29:26.016Z,18.29
2023-05-18T07:31:54.060Z,18.30
2023-05-18T07:34:22.221Z,18.29
2023-05-18T07:36:50.290Z,18.54
2023-05-18T07:39:22.663Z,18.51
2023-05-18T07:41:51.222Z,18.56
2023-05-18T07:44:22.424Z,18.61
2023-05-18T07:46:50.803Z,18.55
2023-05-18T07:49:18.928Z,18.57
2023-05-18T07:51:47.116Z,18.57
2023-05-18T07:54:15.197Z,18.69
2023-05-18T07:56:44.512Z,18.83
2023-05-18T07:59:12.464Z,18.60
2023-05-18T08:01:41.864Z,18.62
2023-05-18T08:04:10.364Z,18.76
2023-05-18T08:06:38.609Z,18.78
2023-05-18T08:09:07.700Z,18.91
2023-05-18T08:11:36.734Z,18.78
2023-05-18T08:14:05.629Z,18.87
2023-05-18T08:16:37.564Z,18.63
2023-05-18T08:19:06.091Z,18.91
2023-05-18T08:21:34.979Z,18.94
2023-05-18T08:24:04.173Z,18.84
2023-05-18T08:26:32.108Z,19.00
2023-05-18T08:29:00.139Z,19.04
2023-05-18T08:31:28.362Z,19.22
2023-05-18T08:33:56.499Z,19.34
2023-05-18T08:36:24.752Z,19.41
2023-05-18T08:38:53.953Z,19.52
2023-05-18T08:41:32.749Z,19.47
2023-05-18T08:44:08.554Z,19.43
2023-05-18T08:46:41.170Z,19.54
2023-05-18T08:49:11.290Z,19.59
2023-05-18T08:51:43.818Z,19.66
2023-05-18T08:54:16.734Z,19.68
2023-05-18T08:56:46.855Z,19.88
2023-05-18T08:59:23.416Z,19.88
2023-05-18T09:01:52.536Z,19.84
2023-05-18T09:04:21.928Z,19.69
2023-05-18T09:06:51.829Z,19.83
2023-05-18T09:09:22.425Z,19.91
2023-05-18T09:11:51.153Z,20.22
2023-05-18T09:14:19.367Z,20.08
2023-05-18T09:16:47.408Z,20.19
2023-05-18T09:19:15.599Z,20.20
2023-05-18T09:21:43.962Z,20.13
2023-05-18T09:24:12.823Z,19.92
2023-05-18T09:26:41.178Z,19.75
2023-05-18T09:29:19.867Z,19.97
2023-05-18T09:31:49.621Z,20.17
2023-05-18T09:34:19.651Z,20.37
2023-05-18T09:36:57.880Z,20.44
2023-05-18T09:39:26.122Z,20.18
2023-05-18T09:41:58.083Z,20.48
2023-05-18T09:44:32.927Z,20.59
2023-05-18T09:47:02.677Z,20.63
2023-05-18T09:49:34.026Z,20.86
2023-05-18T09:52:02.633Z,20.69
2023-05-18T09:54:30.784Z,20.66
2023-05-18T09:57:10.376Z,20.44
2023-05-18T09:59:39.248Z,20.58
2023-05-18T10:02:09.168Z,20.54
2023-05-18T10:04:44.209Z,20.63
2023-05-18T10:07:17.421Z,20.75
2023-05-18T10:09:46.481Z,20.80
2023-05-18T10:12:16.218Z,21.05
2023-05-18T10:14:46.285Z,20.92
2023-05-18T10:17:17.190Z,20.84
2023-05-18T10:19:47.281Z,20.82
2023-05-18T10:22:21.230Z,20.81
2023-05-18T10:24:52.914Z,21.01
2023-05-18T10:27:27.924Z,20.86
2023-05-18T10:29:58.801Z,21.14
2023-05-18T10:32:29.984Z,21.03
2023-05-18T10:35:00.195Z,21.05
2023-05-18T10:37:32.189Z,21.07
2023-05-18T10:40:02.976Z,20.86
2023-05-18T10:42:32.788Z,21.03
2023-05-18T10:45:01.985Z,21.17
2023-05-18T10:47:32.562Z,21.11
2023-05-18T10:50:01.896Z,21.11
2023-05-18T10:52:32.768Z,21.32
2023-05-18T10:55:01.503Z,21.07
2023-05-18T10:57:59.893Z,21.31
2023-05-18T11:00:27.965Z,20.93
2023-05-18T11:02:57.274Z,21.15
2023-05-18T11:05:26.664Z,21.12
2023-05-18T11:08:05.973Z,21.44
2023-05-18T11:10:44.096Z,21.62
2023-05-18T11:13:14.173Z,21.55
2023-05-18T11:15:54.616Z,21.66
2023-05-18T11:18:42.697Z,21.70
2023-05-18T11:21:30.487Z,21.51
2023-05-18T11:24:24.121Z,21.36
2023-05-18T11:26:53.927Z,21.46
2023-05-18T11:29:30.567Z,21.60
2023-05-18T11:31:59.222Z,21.66
2023-05-18T11:34:50.181Z,21.90
2023-05-18T11:37:39.328Z,21.82
2023-05-18T11:40:13.948Z,21.40
2023-05-18T11:42:42.188Z,21.59
2023-05-18T11:45:11.901Z,21.69
2023-05-18T11:47:41.254Z,21.75
2023-05-18T11:50:15.360Z,21.89
2023-05-18T11:52:52.807Z,22.06
2023-05-18T11:55:21.954Z,22.26
2023-05-18T11:57:53.324Z,22.12
2023-05-18T12:00:21.723Z,22.28
2023-05-18T12:02:49.924Z,22.38
2023-05-18T12:05:18.360Z,22.25
2023-05-18T12:07:54.067Z,22.04
2023-05-18T12:10:22.653Z,21.75
2023-05-18T12:12:54.284Z,21.95
2023-05-18T12:15:23.700Z,21.91
2023-05-18T12:17:52.029Z,21.96
2023-05-18T12:20:22.894Z,22.08
2023-05-18T12:22:53.975Z,22.19
2023-05-18T12:25:27.274Z,22.34
2023-05-18T12:27:57.076Z,22.38
2023-05-18T12:30:35.268Z,22.38
2023-05-18T12:33:04.423Z,22.29
2023-05-18T12:35:33.600Z,21.94
2023-05-18T12:38:02.619Z,21.78
2023-05-18T12:40:45.023Z,21.83
2023-05-18T12:43:13.597Z,21.88
2023-05-18T12:45:45.363Z,21.58
2023-05-18T12:48:13.874Z,21.71
2023-05-18T12:50:49.495Z,21.73
2023-05-18T12:53:18.748Z,21.81
2023-05-18T12:55:57.349Z,21.78
2023-05-18T12:58:25.924Z,21.77
2023-05-18T13:00:53.962Z,21.52
2023-05-18T13:03:24.740Z,21.72
2023-05-18T13:06:10.021Z,21.73
2023-05-18T13:08:38.080Z,21.86
2023-05-18T13:11:14.365Z,21.74
2023-05-18T13:14:23.245Z,21.57
2023-05-18T13:16:53.141Z,21.73
2023-05-18T13:19:21.538Z,22.13
2023-05-18T13:21:56.633Z,22.33
2023-05-18T13:24:24.917Z,23.09
2023-05-18T13:26:52.930Z,23.10
2023-05-18T13:29:25.980Z,23.14
2023-05-18T13:31:55.867Z,22.62
2023-05-18T13:34:24.088Z,22.52
2023-05-18T13:36:52.383Z,22.42
2023-05-18T13:39:22.389Z,22.66
2023-05-18T13:41:50.293Z,22.87
2023-05-18T13:44:18.806Z,23.15
2023-05-18T13:46:46.718Z,23.49
2023-05-18T13:49:14.588Z,23.74
2023-05-18T13:51:42.560Z,23.88
2023-05-18T13:54:10.728Z,23.15
2023-05-18T13:56:38.914Z,22.93
2023-05-18T13:59:06.986Z,22.73
2023-05-18T14:01:35.017Z,23.10
2023-05-18T14:04:03.939Z,23.55
2023-05-18T14:06:32.187Z,23.66
2023-05-18T14:09:00.119Z,23.69
2023-05-18T14:11:28.153Z,23.85
2023-05-18T14:13:56.714Z,23.73
2023-05-18T14:16:24.613Z,23.98
2023-05-18T14:18:52.601Z,23.97
2023-05-18T14:21:20.654Z,24.11
2023-05-18T14:23:48.937Z,23.78
2023-05-18T14:26:26.468Z,22.89
2023-05-18T14:28:59.196Z,22.97
2023-05-18T14:31:29.080Z,22.77
2023-05-18T14:33:58.968Z,23.17
2023-05-18T14:36:26.900Z,23.01
2023-05-18T14:38:56.488Z,22.98
2023-05-18T14:41:24.916Z,22.86
2023-05-18T14:43:54.080Z,23.06
2023-05-18T14:46:22.251Z,23.27
2023-05-18T14:48:50.327Z,23.51
2023-05-18T14:51:18.797Z,23.58
2023-05-18T14:53:47.323Z,23.02
2023-05-18T14:56:15.314Z,22.94
2023-05-18T14:58:43.225Z,22.86
2023-05-18T15:01:13.544Z,23.04
2023-05-18T15:03:41.933Z,22.69
2023-05-18T15:06:10.067Z,22.59
2023-05-18T15:08:38.054Z,22.42
2023-05-18T15:11:06.232Z,22.64
2023-05-18T15:13:34.137Z,22.86
2023-05-18T15:16:10.075Z,22.73
2023-05-18T15:18:41.882Z,22.79
2023-05-18T15:21:29.200Z,22.81
2023-05-18T15:24:00.127Z,22.64
2023-05-18T15:26:28.561Z,22.67
2023-05-18T15:28:56.798Z,22.61
2023-05-18T15:31:24.857Z,22.41
2023-05-18T15:33:52.811Z,22.10
2023-05-18T15:36:26.633Z,22.24
2023-05-18T15:38:54.653Z,22.31
2023-05-18T15:41:23.757Z,22.26
2023-05-18T15:43:51.723Z,21.94
2023-05-18T15:46:19.796Z,22.18
2023-05-18T15:48:47.963Z,22.25
2023-05-18T15:51:16.599Z,22.25
2023-05-18T15:53:48.982Z,22.04
2023-05-18T15:56:17.178Z,21.86
2023-05-18T15:58:46.047Z,21.78
2023-05-18T16:01:17.080Z,21.88
2023-05-18T16:03:45.899Z,21.83
2023-05-18T16:06:14.588Z,21.82
2023-05-18T16:08:46.088Z,21.95
2023-05-18T16:11:15.020Z,22.22
2023-05-18T16:13:44.228Z,22.10
2023-05-18T16:16:15.208Z,22.05
2023-05-18T16:18:45.253Z,22.23
2023-05-18T16:21:14.002Z,22.31
2023-05-18T16:23:42.653Z,22.14
2023-05-18T16:26:11.835Z,22.02
2023-05-18T16:28:40.363Z,21.84
2023-05-18T16:31:11.250Z,21.99
2023-05-18T16:33:40.041Z,21.96
2023-05-18T16:36:08.259Z,21.62
2023-05-18T16:38:37.614Z,21.95
2023-05-18T16:41:05.783Z,21.70
2023-05-18T16:43:34.745Z,21.73
2023-05-18T16:46:03.652Z,21.60
2023-05-18T16:48:32.367Z,21.66
2023-05-18T16:51:03.552Z,21.73
2023-05-18T16:53:34.244Z,21.78
2023-05-18T16:56:04.628Z,21.62
2023-05-18T16:58:35.469Z,21.56
2023-05-18T17:01:09.826Z,21.66
2023-05-18T17:03:44.228Z,21.74
2023-05-18T17:06:12.286Z,21.53
2023-05-18T17:08:43.825Z,21.46
2023-05-18T17:11:11.935Z,21.47
2023-05-18T17:13:40.313Z,21.48
2023-05-18T17:16:08.716Z,21.23
2023-05-18T17:18:36.879Z,21.44
2023-05-18T17:21:04.846Z,21.26
2023-05-18T17:23:33.141Z,21.24
2023-05-18T17:26:06.768Z,21.15
2023-05-18T17:28:34.758Z,21.24
2023-05-18T17:31:02.983Z,21.05
2023-05-18T17:33:31.073Z,21.06
2023-05-18T17:35:59.086Z,21.08
2023-05-18T17:38:27.302Z,20.93
2023-05-18T17:40:55.464Z,20.80
2023-05-18T17:43:23.588Z,20.85
2023-05-18T17:45:51.865Z,20.75
2023-05-18T17:48:20.066Z,20.70
2023-05-18T17:50:48.039Z,20.81
2023-05-18T17:53:16.610Z,20.83
2023-05-18T17:55:46.573Z,20.70
2023-05-18T17:58:15.257Z,20.70
2023-05-18T18:00:44.490Z,20.66
2023-05-18T18:03:12.865Z,20.75
2023-05-18T18:05:41.594Z,20.71
2023-05-18T18:08:09.950Z,20.81
2023-05-18T18:10:37.995Z,20.75
2023-05-18T18:13:09.092Z,20.68
2023-05-18T18:15:37.328Z,20.63
2023-05-18T18:18:05.554Z,20.49
2023-05-18T18:20:36.937Z,20.58
2023-05-18T18:23:05.387Z,20.26
2023-05-18T18:25:34.010Z,20.27
2023-05-18T18:28:02.199Z,20.35
2023-05-18T18:30:31.059Z,20.33
2023-05-18T18:33:02.294Z,20.39
2023-05-18T18:35:30.687Z,20.25
2023-05-18T18:37:58.815Z,20.31
2023-05-18T18:40:27.463Z,20.35
2023-05-18T18:42:55.923Z,20.29
2023-05-18T18:45:24.090Z,20.33
2023-05-18T18:47:52.930Z,20.22
2023-05-18T18:50:24.207Z,20.16
2023-05-18T18:52:53.099Z,20.16
2023-05-18T18:55:23.000Z,20.17
2023-05-18T18:57:53.260Z,20.05
2023-05-18T19:00:22.485Z,20.13
2023-05-18T19:02:50.632Z,20.06
2023-05-18T19:05:23.591Z,20.09
2023-05-18T19:07:56.360Z,20.06
2023-05-18T19:10:24.801Z,19.95
2023-05-18T19:12:54.397Z,20.02
2023-05-18T19:15:22.990Z,19.98
2023-05-18T19:17:53.979Z,19.95
2023-05-18T19:20:24.228Z,20.06
2023-05-18T19:22:54.478Z,19.54
2023-05-18T19:25:26.497Z,19.32
2023-05-18T19:27:54.550Z,19.06
2023-05-18T19:30:23.365Z,19.01
2023-05-18T19:32:53.390Z,18.75
2023-05-18T19:35:23.993Z,18.74
2023-05-18T19:37:52.620Z,18.70
2023-05-18T19:40:22.923Z,18.54
2023-05-18T19:42:51.153Z,18.48
2023-05-18T19:45:19.287Z,18.46
2023-05-18T19:47:47.356Z,18.54
2023-05-18T19:50:15.690Z,18.80
2023-05-18T19:52:54.937Z,18.93
2023-05-18T19:55:23.925Z,19.19
2023-05-18T19:57:58.309Z,19.16
2023-05-18T20:00:31.567Z,19.27
2023-05-18T20:03:02.592Z,19.33
2023-05-18T20:05:33.123Z,19.52
2023-05-18T20:08:03.319Z,19.20
2023-05-18T20:10:32.947Z,19.29
2023-05-18T20:13:04.542Z,19.27
2023-05-18T20:15:36.916Z,19.15
2023-05-18T20:18:07.083Z,19.15
2023-05-18T20:20:36.788Z,19.21
2023-05-18T20:23:08.317Z,19.30
2023-05-18T20:25:37.102Z,19.09
2023-05-18T20:28:08.720Z,19.22
2023-05-18T20:30:37.022Z,19.41
2023-05-18T20:33:05.765Z,19.40
2023-05-18T20:35:34.559Z,19.36
2023-05-18T20:38:04.810Z,19.18
2023-05-18T20:40:33.132Z,19.12
2023-05-18T20:43:02.472Z,18.87
2023-05-18T20:45:31.585Z,18.46
2023-05-18T20:48:00.330Z,18.45
2023-05-18T20:50:28.759Z,18.21
2023-05-18T20:52:57.185Z,18.10
2023-05-18T20:55:25.374Z,18.13
2023-05-18T20:57:53.746Z,17.93
2023-05-18T21:00:21.943Z,18.08
2023-05-18T21:02:50.090Z,17.99
2023-05-18T21:05:19.131Z,18.06
2023-05-18T21:07:49.089Z,18.20
2023-05-18T21:10:17.246Z,18.27
2023-05-18T21:12:45.406Z,18.37
2023-05-18T21:15:13.814Z,18.36
2023-05-18T21:17:41.862Z,18.24
2023-05-18T21:20:10.603Z,18.24
2023-05-18T21:22:38.723Z,18.22
2023-05-18T21:25:07.385Z,18.15
2023-05-18T21:27:37.396Z,18.22
2023-05-18T21:30:06.004Z,18.18
2023-05-18T21:32:34.324Z,18.13
2023-05-18T21:35:03.349Z,18.11
2023-05-18T21:37:36.271Z,17.99
2023-05-18T21:40:10.689Z,18.02
2023-05-18T21:42:45.201Z,18.04
2023-05-18T21:45:13.853Z,18.09
2023-05-18T21:47:41.961Z,18.08
2023-05-18T21:50:10.354Z,18.16
2023-05-18T21:52:38.439Z,17.99
2023-05-18T21:55:07.190Z,17.68
2023-05-18T21:57:35.465Z,17.58
2023-05-18T22:00:04.158Z,17.64
2023-05-18T22:02:41.374Z,17.67
2023-05-18T22:05:10.066Z,17.71
2023-05-18T22:07:38.196Z,17.49
2023-05-18T22:10:06.704Z,17.54
2023-05-18T22:12:34.808Z,17.65
2023-05-18T22:15:02.886Z,17.68
2023-05-18T22:17:31.937Z,17.57
2023-05-18T22:19:59.935Z,17.40
2023-05-18T22:22:30.824Z,17.49
2023-05-18T22:24:59.020Z,17.31
2023-05-18T22:27:27.112Z,17.24
2023-05-18T22:29:55.618Z,17.26
2023-05-18T22:32:23.749Z,17.23
2023-05-18T22:34:52.171Z,17.30
2023-05-18T22:37:20.231Z,17.28
2023-05-18T22:39:48.277Z,17.25
2023-05-18T22:42:16.196Z,17.34
2023-05-18T22:44:44.457Z,17.37
2023-05-18T22:47:13.550Z,17.55
2023-05-18T22:49:41.612Z,17.52
2023-05-18T22:52:10.507Z,17.45
2023-05-18T22:54:40.815Z,17.56
2023-05-18T22:57:08.902Z,17.49
2023-05-18T22:59:37.598Z,17.46
2023-05-18T23:02:06.154Z,17.42
2023-05-18T23:04:35.121Z,17.33
2023-05-18T23:07:04.326Z,17.33
2023-05-18T23:09:32.410Z,17.45
2023-05-18T23:12:01.366Z,17.29
2023-05-18T23:14:31.387Z,17.32
2023-05-18T23:17:02.919Z,17.40
2023-05-18T23:19:30.965Z,17.37
2023-05-18T23:21:58.983Z,17.29
2023-05-18T23:24:27.026Z,17.26
2023-05-18T23:26:55.905Z,17.23
2023-05-18T23:29:23.941Z,17.30
2023-05-18T23:31:52.588Z,17.26
2023-05-18T23:34:21.108Z,17.25
2023-05-18T23:36:53.930Z,17.27
2023-05-18T23:39:23.095Z,17.28
2023-05-18T23:41:53.598Z,17.25
2023-05-18T23:44:22.180Z,17.31
2023-05-18T23:46:50.663Z,17.28
2023-05-18T23:49:18.939Z,17.18
2023-05-18T23:51:52.214Z,17.13
2023-05-18T23:54:21.297Z,17.24
2023-05-18T23:56:51.045Z,17.21
2023-05-18T23:59:19.489Z,17.26
